Time;durP1;ratioP1;P1;durP2;ratioP2;P2;SDS_P1;SDS_P2;PMS_P1;PMS_P2;Temp;Humidity;BMP_temperature;BMP_pressure;BME280_temperature;BME280_humidity;BME280_pressure;Samples;Min_cycle;Max_cycle;Signal;HPM_P1;HPM_P2
2023/08/24 00:02:17;;;;;;;11.17;7.80;;;;;;;;;;5030718;28;20500;-58
2023/08/24 00:04:44;;;;;;;8.07;7.27;;;;;;;;;;5038892;28;20442;-58
2023/08/24 00:07:12;;;;;;;8.87;7.50;;;;;;;;;;5053691;28;20498;-58
2023/08/24 00:09:40;;;;;;;7.23;6.50;;;;;;;;;;5053455;28;20457;-58
2023/08/24 00:12:07;;;;;;;10.50;6.60;;;;;;;;;;5053462;28;20498;-58
2023/08/24 00:14:35;;;;;;;7.87;7.07;;;;;;;;;;5053616;28;20823;-59
2023/08/24 00:17:02;;;;;;;8.00;6.63;;;;;;;;;;5053582;28;21021;-58
2023/08/24 00:19:29;;;;;;;8.53;7.27;;;;;;;;;;5053286;28;20979;-58
2023/08/24 00:21:56;;;;;;;10.13;9.03;;;;;;;;;;5053309;28;21068;-57
2023/08/24 00:24:25;;;;;;;10.90;7.10;;;;;;;;;;5053036;28;20450;-58
2023/08/24 00:26:52;;;;;;;7.33;6.53;;;;;;;;;;5053135;28;20453;-60
2023/08/24 00:29:21;;;;;;;7.00;6.30;;;;;;;;;;5052344;28;21135;-58
2023/08/24 00:31:49;;;;;;;8.00;6.17;;;;;;;;;;5053229;28;20449;-59
2023/08/24 00:34:16;;;;;;;9.10;6.53;;;;;;;;;;5053654;28;20433;-59
2023/08/24 00:36:43;;;;;;;9.97;6.93;;;;;;;;;;5053214;28;20555;-57
2023/08/24 00:39:11;;;;;;;7.13;6.43;;;;;;;;;;5052579;28;20898;-57
2023/08/24 00:41:41;;;;;;;7.50;6.80;;;;;;;;;;5052667;28;20445;-57
2023/08/24 00:44:08;;;;;;;8.13;7.30;;;;;;;;;;5053350;28;20530;-57
2023/08/24 00:46:36;;;;;;;8.07;6.73;;;;;;;;;;5053013;28;20503;-58
2023/08/24 00:49:04;;;;;;;17.63;8.03;;;;;;;;;;5052782;28;20461;-58
2023/08/24 00:51:31;;;;;;;12.37;6.87;;;;;;;;;;5053263;28;20491;-57
2023/08/24 00:53:58;;;;;;;9.57;7.43;;;;;;;;;;5053250;28;20437;-58
2023/08/24 00:56:25;;;;;;;11.03;7.40;;;;;;;;;;5052934;28;20696;-58
2023/08/24 00:58:56;;;;;;;8.63;6.70;;;;;;;;;;5052849;28;20540;-59
2023/08/24 01:01:24;;;;;;;7.43;6.63;;;;;;;;;;5052901;28;20521;-58
2023/08/24 01:03:51;;;;;;;8.33;7.50;;;;;;;;;;5052717;28;20469;-57
2023/08/24 01:06:18;;;;;;;8.60;6.90;;;;;;;;;;5052772;28;20859;-59
2023/08/24 01:08:46;;;;;;;6.93;6.23;;;;;;;;;;5052744;28;20526;-59
2023/08/24 01:11:15;;;;;;;8.13;6.40;;;;;;;;;;5052860;28;20438;-57
2023/08/24 01:13:47;;;;;;;7.27;6.50;;;;;;;;;;5052377;28;20838;-58
2023/08/24 01:16:18;;;;;;;9.87;7.10;;;;;;;;;;5051731;28;20504;-59
2023/08/24 01:18:45;;;;;;;6.93;6.23;;;;;;;;;;5051883;28;20562;-59
2023/08/24 01:21:14;;;;;;;9.77;7.00;;;;;;;;;;5052099;28;20445;-58
2023/08/24 01:23:45;;;;;;;8.20;6.47;;;;;;;;;;5052143;28;20560;-60
2023/08/24 01:26:14;;;;;;;9.27;6.93;;;;;;;;;;5052791;28;20819;-58
2023/08/24 01:28:43;;;;;;;9.00;6.50;;;;;;;;;;5051079;28;20566;-58
2023/08/24 01:31:10;;;;;;;8.50;6.57;;;;;;;;;;5051425;28;20445;-58
2023/08/24 01:33:37;;;;;;;9.07;5.97;;;;;;;;;;5051849;28;20441;-59
2023/08/24 01:36:05;;;;;;;8.80;6.80;;;;;;;;;;5052070;28;20453;-59
2023/08/24 01:38:32;;;;;;;10.87;6.97;;;;;;;;;;5051856;28;20903;-58
2023/08/24 01:41:05;;;;;;;8.13;6.10;;;;;;;;;;5051630;28;20861;-58
2023/08/24 01:43:35;;;;;;;9.93;7.30;;;;;;;;;;5051981;28;20539;-58
2023/08/24 01:46:04;;;;;;;11.60;6.87;;;;;;;;;;5052019;28;20445;-57
2023/08/24 01:48:32;;;;;;;9.57;7.00;;;;;;;;;;5051931;28;20880;-58
2023/08/24 01:51:00;;;;;;;8.67;6.83;;;;;;;;;;5051539;28;20803;-57
2023/08/24 01:53:28;;;;;;;7.80;6.87;;;;;;;;;;5038380;28;20856;-58
2023/08/24 01:55:55;;;;;;;8.93;6.50;;;;;;;;;;5051820;28;20538;-58
2023/08/24 01:58:22;;;;;;;6.83;6.10;;;;;;;;;;5051681;28;20501;-59
2023/08/24 02:00:51;;;;;;;7.03;6.00;;;;;;;;;;5051545;28;20445;-58
2023/08/24 02:03:18;;;;;;;8.57;6.80;;;;;;;;;;5051492;28;21069;-58
2023/08/24 02:05:45;;;;;;;10.03;6.27;;;;;;;;;;5051203;28;20532;-59
2023/08/24 02:08:13;;;;;;;7.60;6.13;;;;;;;;;;5051536;28;20523;-58
2023/08/24 02:10:40;;;;;;;9.87;6.50;;;;;;;;;;5050958;28;20819;-57
2023/08/24 02:13:07;;;;;;;8.00;6.00;;;;;;;;;;5050767;28;20914;-57
2023/08/24 02:15:34;;;;;;;9.13;7.17;;;;;;;;;;5049951;28;20441;-58
2023/08/24 02:18:04;;;;;;;9.03;6.93;;;;;;;;;;5051050;28;20525;-58
2023/08/24 02:20:31;;;;;;;8.20;7.37;;;;;;;;;;5050488;28;20441;-59
2023/08/24 02:22:58;;;;;;;7.43;6.70;;;;;;;;;;5046999;28;20469;-58
2023/08/24 02:25:26;;;;;;;7.10;6.27;;;;;;;;;;5051446;28;20433;-58
2023/08/24 02:27:53;;;;;;;7.33;6.53;;;;;;;;;;5050754;28;20989;-58
2023/08/24 02:30:20;;;;;;;8.70;6.63;;;;;;;;;;5049324;28;20442;-58
2023/08/24 02:32:47;;;;;;;6.70;6.00;;;;;;;;;;5037116;28;20840;-58
2023/08/24 02:35:17;;;;;;;9.63;7.07;;;;;;;;;;5035287;28;20943;-57
2023/08/24 02:37:44;;;;;;;7.97;6.80;;;;;;;;;;5050966;28;20944;-58
2023/08/24 02:40:12;;;;;;;10.70;6.63;;;;;;;;;;5062367;22;20532;-87
2023/08/24 02:42:39;;;;;;;7.60;6.10;;;;;;;;;;5044135;28;20481;-86
2023/08/24 02:45:07;;;;;;;7.73;5.80;;;;;;;;;;5054633;28;20442;-87
2023/08/24 02:47:34;;;;;;;10.27;7.37;;;;;;;;;;5043666;28;20515;-85
2023/08/24 02:50:01;;;;;;;8.23;6.43;;;;;;;;;;5045559;28;20438;-85
2023/08/24 02:52:30;;;;;;;8.63;6.70;;;;;;;;;;5055192;28;20469;-85
2023/08/24 02:54:57;;;;;;;7.53;5.87;;;;;;;;;;5054976;28;20494;-85
2023/08/24 02:57:25;;;;;;;8.10;5.90;;;;;;;;;;5054927;28;20442;-85
2023/08/24 02:59:52;;;;;;;9.07;6.83;;;;;;;;;;5054714;28;20434;-85
2023/08/24 03:02:19;;;;;;;10.33;6.53;;;;;;;;;;5053969;28;20464;-85
2023/08/24 03:04:46;;;;;;;9.40;6.47;;;;;;;;;;5054336;28;20481;-85
2023/08/24 03:07:14;;;;;;;7.67;6.53;;;;;;;;;;5054231;28;20929;-85
2023/08/24 03:09:42;;;;;;;6.73;6.00;;;;;;;;;;5050695;28;20810;-85
2023/08/24 03:12:10;;;;;;;8.57;7.40;;;;;;;;;;5044012;28;20516;-85
2023/08/24 03:14:37;;;;;;;7.97;6.67;;;;;;;;;;5034807;28;20488;-85
2023/08/24 03:17:05;;;;;;;10.23;6.33;;;;;;;;;;5051653;28;20507;-85
2023/08/24 03:19:32;;;;;;;9.53;6.30;;;;;;;;;;5054595;28;20914;-85
2023/08/24 03:22:00;;;;;;;9.80;6.57;;;;;;;;;;5051747;28;20462;-85
2023/08/24 03:24:27;;;;;;;10.30;6.30;;;;;;;;;;5054572;28;20532;-86
2023/08/24 03:26:56;;;;;;;7.80;6.47;;;;;;;;;;5054663;28;20445;-85
2023/08/24 03:29:23;;;;;;;8.20;6.40;;;;;;;;;;5053818;28;20939;-85
2023/08/24 03:31:50;;;;;;;7.00;6.10;;;;;;;;;;5053167;28;20465;-85
2023/08/24 03:34:17;;;;;;;8.53;6.67;;;;;;;;;;5053069;28;20498;-86
2023/08/24 03:36:45;;;;;;;9.93;6.43;;;;;;;;;;5053798;28;20445;-86
2023/08/24 03:39:13;;;;;;;7.47;5.93;;;;;;;;;;5057549;28;20457;-85
2023/08/24 03:41:40;;;;;;;9.87;5.87;;;;;;;;;;5056686;28;20453;-85
2023/08/24 03:44:09;;;;;;;8.83;6.20;;;;;;;;;;5055770;28;20477;-85
2023/08/24 03:46:36;;;;;;;12.43;5.97;;;;;;;;;;5056606;28;20840;-85
2023/08/24 03:49:03;;;;;;;8.13;6.10;;;;;;;;;;5056491;28;20434;-85
2023/08/24 03:51:30;;;;;;;8.07;6.20;;;;;;;;;;5056382;28;20452;-85
2023/08/24 03:53:58;;;;;;;9.50;5.50;;;;;;;;;;5056083;28;21076;-86
2023/08/24 03:56:25;;;;;;;10.73;5.73;;;;;;;;;;5056104;28;20467;-86
2023/08/24 03:58:52;;;;;;;7.20;5.60;;;;;;;;;;5056093;28;20445;-86
2023/08/24 04:01:22;;;;;;;8.73;6.33;;;;;;;;;;5055670;28;20963;-86
2023/08/24 04:03:49;;;;;;;13.83;5.80;;;;;;;;;;5056008;28;20468;-86
2023/08/24 04:06:19;;;;;;;7.83;5.70;;;;;;;;;;5056584;28;20468;-85
2023/08/24 04:08:46;;;;;;;7.30;6.33;;;;;;;;;;5056507;28;20453;-86
2023/08/24 04:11:14;;;;;;;9.67;6.43;;;;;;;;;;5056548;28;20479;-86
2023/08/24 04:13:41;;;;;;;9.00;6.20;;;;;;;;;;5056292;28;20523;-86
2023/08/24 04:16:08;;;;;;;12.47;6.90;;;;;;;;;;5056202;28;20453;-86
2023/08/24 04:18:37;;;;;;;9.33;6.20;;;;;;;;;;5056804;28;20479;-85
2023/08/24 04:21:05;;;;;;;6.93;6.10;;;;;;;;;;5056652;28;20491;-85
2023/08/24 04:23:32;;;;;;;8.33;5.47;;;;;;;;;;5056579;28;20481;-85
2023/08/24 04:25:59;;;;;;;11.33;6.47;;;;;;;;;;5056513;28;20844;-85
2023/08/24 04:28:27;;;;;;;7.07;5.07;;;;;;;;;;5056174;28;20446;-86
2023/08/24 04:30:55;;;;;;;8.50;5.60;;;;;;;;;;5056179;28;21011;-85
2023/08/24 04:33:23;;;;;;;10.97;6.53;;;;;;;;;;5056362;28;20454;-85
2023/08/24 04:35:51;;;;;;;9.00;5.30;;;;;;;;;;5056289;28;20441;-85
2023/08/24 04:38:19;;;;;;;9.53;6.00;;;;;;;;;;5056128;28;20430;-86
2023/08/24 04:40:48;;;;;;;9.20;5.60;;;;;;;;;;5057229;28;20433;-85
2023/08/24 04:43:15;;;;;;;9.20;6.80;;;;;;;;;;5056437;28;20896;-86
2023/08/24 04:45:42;;;;;;;8.17;6.50;;;;;;;;;;5057365;28;20507;-84
2023/08/24 04:48:10;;;;;;;7.83;5.60;;;;;;;;;;5057854;28;20445;-86
2023/08/24 04:50:37;;;;;;;7.30;5.43;;;;;;;;;;5055323;28;20472;-86
2023/08/24 04:53:06;;;;;;;6.60;5.53;;;;;;;;;;5057557;28;20464;-85
2023/08/24 04:55:33;;;;;;;9.43;6.70;;;;;;;;;;5072417;28;20429;-86
2023/08/24 04:58:00;;;;;;;8.00;5.40;;;;;;;;;;5055093;28;20847;-85
2023/08/24 05:00:28;;;;;;;10.10;6.70;;;;;;;;;;5054564;28;20968;-86
2023/08/24 05:02:55;;;;;;;8.00;5.23;;;;;;;;;;5053433;28;20507;-86
2023/08/24 05:05:22;;;;;;;8.23;5.70;;;;;;;;;;5054233;28;20558;-85
2023/08/24 05:07:50;;;;;;;9.57;6.00;;;;;;;;;;5055875;28;20498;-86
2023/08/24 05:10:18;;;;;;;12.20;5.83;;;;;;;;;;5057027;28;20434;-86
2023/08/24 05:12:46;;;;;;;12.30;6.90;;;;;;;;;;5059909;28;20475;-85
2023/08/24 05:15:13;;;;;;;8.87;6.27;;;;;;;;;;5056780;28;20472;-86
2023/08/24 05:17:40;;;;;;;9.30;6.40;;;;;;;;;;5053931;28;20448;-85
2023/08/24 05:20:10;;;;;;;9.77;6.37;;;;;;;;;;5055859;28;20434;-85
2023/08/24 05:22:37;;;;;;;9.37;5.97;;;;;;;;;;5054641;28;20544;-84
2023/08/24 05:25:05;;;;;;;9.27;7.07;;;;;;;;;;5054003;28;20530;-85
2023/08/24 05:27:34;;;;;;;9.63;5.40;;;;;;;;;;5055308;28;20458;-85
2023/08/24 05:30:01;;;;;;;10.50;5.10;;;;;;;;;;5054712;28;20441;-85
2023/08/24 05:32:28;;;;;;;7.63;5.17;;;;;;;;;;5054398;28;20530;-84
2023/08/24 05:34:56;;;;;;;6.57;4.10;;;;;;;;;;5053703;28;20495;-85
2023/08/24 05:37:23;;;;;;;9.37;5.70;;;;;;;;;;5053183;28;20447;-84
2023/08/24 05:39:50;;;;;;;9.53;5.30;;;;;;;;;;5053869;28;20870;-85
2023/08/24 05:42:18;;;;;;;10.73;6.13;;;;;;;;;;5053923;28;20522;-85
2023/08/24 05:44:46;;;;;;;8.83;6.00;;;;;;;;;;5053006;28;20527;-85
2023/08/24 05:47:14;;;;;;;7.83;5.43;;;;;;;;;;5050092;28;20859;-84
2023/08/24 05:49:41;;;;;;;9.23;6.17;;;;;;;;;;5052460;28;20992;-84
2023/08/24 05:52:08;;;;;;;7.93;5.77;;;;;;;;;;5053353;28;20507;-84
2023/08/24 05:54:37;;;;;;;7.40;5.57;;;;;;;;;;5054525;28;20813;-85
2023/08/24 05:57:05;;;;;;;6.27;5.63;;;;;;;;;;5054712;28;20445;-85
2023/08/24 05:59:32;;;;;;;7.77;5.10;;;;;;;;;;5054109;28;20499;-84
2023/08/24 06:02:01;;;;;;;6.40;4.97;;;;;;;;;;5053555;28;20487;-85
2023/08/24 06:04:28;;;;;;;12.63;6.57;;;;;;;;;;5054925;28;20985;-85
2023/08/24 06:06:55;;;;;;;9.23;5.30;;;;;;;;;;5054694;28;20445;-85
2023/08/24 06:09:23;;;;;;;6.70;6.00;;;;;;;;;;5054797;28;20491;-85
2023/08/24 06:11:50;;;;;;;6.70;5.17;;;;;;;;;;5054059;28;20981;-85
2023/08/24 06:14:17;;;;;;;13.07;5.50;;;;;;;;;;5055102;28;20442;-85
2023/08/24 06:16:45;;;;;;;8.30;5.07;;;;;;;;;;5054774;28;20446;-85
2023/08/24 06:19:14;;;;;;;6.90;5.10;;;;;;;;;;5054677;28;20814;-85
2023/08/24 06:21:41;;;;;;;9.53;5.43;;;;;;;;;;5054553;28;20834;-84
2023/08/24 06:24:08;;;;;;;8.57;5.30;;;;;;;;;;5054178;28;20469;-85
2023/08/24 06:26:36;;;;;;;7.10;5.70;;;;;;;;;;5055006;28;20449;-85
2023/08/24 06:29:03;;;;;;;7.30;5.50;;;;;;;;;;5054201;28;20445;-85
2023/08/24 06:31:31;;;;;;;7.53;5.47;;;;;;;;;;5054412;28;20452;-86
2023/08/24 06:33:58;;;;;;;9.03;5.23;;;;;;;;;;5055386;28;20473;-84
2023/08/24 06:36:28;;;;;;;9.80;6.67;;;;;;;;;;5054313;28;20445;-85
2023/08/24 06:38:55;;;;;;;6.57;5.27;;;;;;;;;;5055312;28;20461;-85
2023/08/24 06:41:23;;;;;;;9.30;7.30;;;;;;;;;;5054520;28;21080;-85
2023/08/24 06:43:50;;;;;;;5.67;4.70;;;;;;;;;;5054738;28;20843;-85
2023/08/24 06:46:19;;;;;;;8.17;4.67;;;;;;;;;;5056564;28;20426;-86
2023/08/24 06:48:46;;;;;;;9.33;5.40;;;;;;;;;;5054882;28;20536;-85
2023/08/24 06:51:13;;;;;;;8.60;7.37;;;;;;;;;;5052872;28;20926;-85
2023/08/24 06:53:43;;;;;;;14.20;7.20;;;;;;;;;;5054222;28;20460;-85
2023/08/24 06:56:10;;;;;;;10.37;6.80;;;;;;;;;;5056950;28;20992;-85
2023/08/24 06:58:38;;;;;;;8.30;7.23;;;;;;;;;;5057861;28;20514;-86
2023/08/24 07:01:07;;;;;;;10.87;7.63;;;;;;;;;;5056766;28;20500;-85
2023/08/24 07:03:34;;;;;;;10.47;7.30;;;;;;;;;;5055992;28;20861;-85
2023/08/24 07:06:02;;;;;;;11.30;7.70;;;;;;;;;;5054946;28;20477;-85
2023/08/24 07:08:29;;;;;;;12.30;6.00;;;;;;;;;;5054362;28;20950;-85
2023/08/24 07:10:58;;;;;;;8.80;6.27;;;;;;;;;;5055086;28;20429;-85
2023/08/24 07:13:26;;;;;;;5.93;5.33;;;;;;;;;;5055186;28;20850;-85
2023/08/24 07:15:55;;;;;;;13.00;4.90;;;;;;;;;;5056002;28;20445;-85
2023/08/24 07:18:22;;;;;;;7.60;6.73;;;;;;;;;;5056917;28;20488;-85
2023/08/24 07:20:49;;;;;;;9.80;5.70;;;;;;;;;;5056588;28;20449;-85
2023/08/24 07:23:17;;;;;;;9.00;5.43;;;;;;;;;;5057064;28;20883;-85
2023/08/24 07:25:44;;;;;;;14.20;6.63;;;;;;;;;;5057841;28;20883;-85
2023/08/24 07:28:13;;;;;;;10.03;6.13;;;;;;;;;;5056040;28;20976;-84
2023/08/24 07:30:40;;;;;;;12.77;5.93;;;;;;;;;;5058196;28;20457;-84
2023/08/24 07:33:07;;;;;;;12.53;5.77;;;;;;;;;;5057945;28;20511;-85
2023/08/24 07:35:34;;;;;;;10.37;6.13;;;;;;;;;;5057397;28;20441;-85
2023/08/24 07:38:02;;;;;;;10.23;6.03;;;;;;;;;;5058239;28;20476;-85
2023/08/24 07:40:29;;;;;;;10.13;6.10;;;;;;;;;;5057765;28;20465;-86
2023/08/24 07:42:57;;;;;;;8.37;4.93;;;;;;;;;;5058008;28;20453;-85
2023/08/24 07:45:26;;;;;;;9.50;5.97;;;;;;;;;;5054635;28;20559;-85
2023/08/24 07:47:53;;;;;;;7.37;5.70;;;;;;;;;;5053787;28;20821;-86
2023/08/24 07:50:22;;;;;;;8.30;5.47;;;;;;;;;;5053424;28;20449;-85
2023/08/24 07:52:49;;;;;;;9.53;5.37;;;;;;;;;;5052761;28;20476;-85
2023/08/24 07:55:17;;;;;;;10.50;5.83;;;;;;;;;;5051944;28;20779;-85
2023/08/24 07:57:44;;;;;;;8.73;5.53;;;;;;;;;;5051913;28;20515;-85
2023/08/24 08:00:13;;;;;;;8.60;4.87;;;;;;;;;;5052201;28;20465;-86
2023/08/24 08:02:42;;;;;;;8.33;6.00;;;;;;;;;;5051988;28;20556;-85
2023/08/24 08:05:10;;;;;;;10.07;5.30;;;;;;;;;;5051451;28;20563;-85
2023/08/24 08:07:37;;;;;;;12.33;6.13;;;;;;;;;;5051952;28;20444;-85
2023/08/24 08:10:05;;;;;;;10.83;5.57;;;;;;;;;;5051655;28;20441;-86
2023/08/24 08:12:33;;;;;;;10.57;6.30;;;;;;;;;;5052101;28;20813;-85
2023/08/24 08:15:00;;;;;;;8.03;6.70;;;;;;;;;;5052199;28;20433;-86
2023/08/24 08:17:30;;;;;;;15.73;6.70;;;;;;;;;;5052453;28;20433;-85
2023/08/24 08:19:59;;;;;;;7.73;5.73;;;;;;;;;;5052601;28;20449;-85
2023/08/24 08:22:26;;;;;;;8.87;6.40;;;;;;;;;;5053325;28;20899;-85
2023/08/24 08:24:56;;;;;;;7.40;5.47;;;;;;;;;;5053720;28;20475;-85
2023/08/24 08:27:23;;;;;;;9.33;5.70;;;;;;;;;;5056943;28;20532;-85
2023/08/24 08:29:52;;;;;;;7.20;5.50;;;;;;;;;;5055361;28;20441;-85
2023/08/24 08:32:20;;;;;;;7.63;5.73;;;;;;;;;;5054828;28;20536;-85
2023/08/24 08:34:47;;;;;;;10.80;5.77;;;;;;;;;;5054787;28;20811;-85
2023/08/24 08:37:16;;;;;;;7.87;6.43;;;;;;;;;;5054445;28;20437;-85
2023/08/24 08:39:43;;;;;;;11.60;8.40;;;;;;;;;;5054761;28;20536;-85
2023/08/24 08:42:13;;;;;;;8.63;6.10;;;;;;;;;;5054935;28;20884;-85
2023/08/24 08:44:40;;;;;;;8.60;6.23;;;;;;;;;;5055359;28;20483;-85
2023/08/24 08:47:10;;;;;;;14.00;5.93;;;;;;;;;;5055852;28;20461;-85
2023/08/24 08:49:38;;;;;;;9.20;6.00;;;;;;;;;;5056374;28;20457;-86
2023/08/24 08:52:06;;;;;;;10.20;6.40;;;;;;;;;;5056552;22;20555;-57
2023/08/24 08:54:34;;;;;;;10.43;6.57;;;;;;;;;;5033490;28;20430;-58
2023/08/24 08:57:04;;;;;;;10.57;6.03;;;;;;;;;;5033026;28;20896;-57
2023/08/24 08:59:31;;;;;;;7.67;5.50;;;;;;;;;;5033301;28;20472;-58
2023/08/24 09:02:00;;;;;;;10.80;6.17;;;;;;;;;;5032960;28;20878;-57
2023/08/24 09:04:28;;;;;;;10.13;6.60;;;;;;;;;;5033118;28;20453;-58
2023/08/24 09:06:56;;;;;;;11.23;5.77;;;;;;;;;;5032976;28;20480;-57
2023/08/24 09:09:23;;;;;;;11.07;5.40;;;;;;;;;;5033162;28;20973;-56
2023/08/24 09:11:51;;;;;;;7.90;5.63;;;;;;;;;;5033098;28;20442;-57
2023/08/24 09:14:19;;;;;;;13.80;6.70;;;;;;;;;;5032914;28;20694;-56
2023/08/24 09:16:46;;;;;;;12.40;5.97;;;;;;;;;;5033057;28;20492;-57
2023/08/24 09:19:14;;;;;;;13.53;6.23;;;;;;;;;;5032996;28;20892;-57
2023/08/24 09:21:41;;;;;;;11.07;6.10;;;;;;;;;;5032384;28;20533;-58
2023/08/24 09:24:09;;;;;;;9.10;5.60;;;;;;;;;;5032562;28;20453;-57
2023/08/24 09:26:42;;;;;;;9.50;6.37;;;;;;;;;;5032734;28;20478;-57
2023/08/24 09:29:12;;;;;;;11.33;6.03;;;;;;;;;;5032913;28;20462;-57
2023/08/24 09:31:43;;;;;;;8.70;5.47;;;;;;;;;;5032558;28;20818;-56
2023/08/24 09:34:11;;;;;;;14.10;6.40;;;;;;;;;;5032477;28;20443;-57
2023/08/24 09:36:39;;;;;;;12.57;5.80;;;;;;;;;;5031745;28;20517;-56
2023/08/24 09:39:06;;;;;;;9.43;5.73;;;;;;;;;;5032295;28;20549;-57
2023/08/24 09:41:40;;;;;;;8.53;6.10;;;;;;;;;;5031939;28;20442;-56
2023/08/24 09:44:07;;;;;;;9.03;5.90;;;;;;;;;;5032472;28;20454;-57
2023/08/24 09:46:35;;;;;;;14.87;6.40;;;;;;;;;;5032350;28;20513;-57
2023/08/24 09:49:03;;;;;;;11.03;6.10;;;;;;;;;;5032103;28;20532;-57
2023/08/24 09:51:31;;;;;;;9.63;6.07;;;;;;;;;;5032340;28;20525;-57
2023/08/24 09:53:59;;;;;;;11.93;6.03;;;;;;;;;;5032561;28;20520;-57
2023/08/24 09:56:27;;;;;;;12.63;6.10;;;;;;;;;;5032232;28;20532;-57
2023/08/24 09:58:55;;;;;;;8.87;6.00;;;;;;;;;;5031876;28;20549;-58
2023/08/24 10:01:23;;;;;;;9.47;6.37;;;;;;;;;;5032075;28;20442;-57
2023/08/24 10:03:52;;;;;;;9.90;5.80;;;;;;;;;;5027451;28;20449;-57
2023/08/24 10:06:23;;;;;;;7.83;5.10;;;;;;;;;;5002721;28;20503;-56
2023/08/24 10:08:54;;;;;;;9.17;5.77;;;;;;;;;;5011103;28;20463;-57
2023/08/24 10:11:25;;;;;;;7.67;5.53;;;;;;;;;;5012369;28;20530;-58
2023/08/24 10:13:59;;;;;;;10.30;5.90;;;;;;;;;;5012085;28;20475;-57
2023/08/24 10:16:28;;;;;;;9.00;5.73;;;;;;;;;;5011437;28;20445;-57
2023/08/24 10:18:56;;;;;;;10.87;6.30;;;;;;;;;;5012083;28;20525;-56
2023/08/24 10:21:26;;;;;;;10.97;7.03;;;;;;;;;;5011824;28;20527;-58
2023/08/24 10:23:53;;;;;;;9.63;6.50;;;;;;;;;;5010705;28;20483;-57
2023/08/24 10:26:21;;;;;;;10.10;7.37;;;;;;;;;;5010832;28;20558;-58
2023/08/24 10:28:49;;;;;;;11.80;7.03;;;;;;;;;;5010588;28;20458;-57
2023/08/24 10:31:17;;;;;;;11.10;6.93;;;;;;;;;;5011312;28;20523;-57
2023/08/24 10:33:45;;;;;;;8.73;7.07;;;;;;;;;;5010609;28;20432;-58
2023/08/24 10:36:14;;;;;;;11.03;6.93;;;;;;;;;;5010614;28;20432;-57
2023/08/24 10:38:43;;;;;;;11.53;7.40;;;;;;;;;;5011174;28;20922;-57
2023/08/24 10:41:12;;;;;;;13.07;8.20;;;;;;;;;;5010209;28;20842;-58
2023/08/24 10:43:40;;;;;;;9.73;6.90;;;;;;;;;;5010930;28;21000;-55
2023/08/24 10:46:13;;;;;;;11.43;7.67;;;;;;;;;;5008474;28;20562;-58
2023/08/24 10:48:59;;;;;;;7.30;6.57;;;;;;;;;;5010642;28;20467;-57
2023/08/24 10:51:28;;;;;;;10.70;6.37;;;;;;;;;;5007678;28;20451;-57
2023/08/24 10:53:57;;;;;;;9.03;6.47;;;;;;;;;;5008812;28;20439;-56
2023/08/24 10:56:31;;;;;;;9.03;5.97;;;;;;;;;;5002614;28;20872;-56
2023/08/24 10:59:11;;;;;;;10.07;6.47;;;;;;;;;;5009592;28;20996;-58
2023/08/24 11:01:40;;;;;;;13.27;6.90;;;;;;;;;;5010157;28;20443;-58
2023/08/24 11:04:08;;;;;;;11.63;7.43;;;;;;;;;;5010929;28;20446;-58
2023/08/24 11:06:36;;;;;;;8.30;6.30;;;;;;;;;;5010235;28;20549;-57
2023/08/24 11:09:13;;;;;;;15.07;8.20;;;;;;;;;;5006897;28;20490;-57
2023/08/24 11:11:41;;;;;;;13.43;6.87;;;;;;;;;;5002780;28;20852;-57
2023/08/24 11:14:15;;;;;;;9.67;6.90;;;;;;;;;;5008819;28;20775;-58
2023/08/24 11:16:43;;;;;;;10.83;6.40;;;;;;;;;;5009235;28;20478;-57
2023/08/24 11:19:10;;;;;;;15.20;6.97;;;;;;;;;;5005128;28;20487;-57
2023/08/24 11:21:38;;;;;;;8.67;6.07;;;;;;;;;;5009269;28;20505;-58
2023/08/24 11:24:06;;;;;;;12.20;6.90;;;;;;;;;;5009738;28;20490;-57
2023/08/24 11:26:35;;;;;;;10.43;7.30;;;;;;;;;;5010170;28;20479;-57
2023/08/24 11:29:06;;;;;;;9.63;6.33;;;;;;;;;;5010266;28;20486;-57
2023/08/24 11:31:35;;;;;;;10.87;6.20;;;;;;;;;;5009906;28;20471;-57
2023/08/24 11:34:02;;;;;;;7.80;5.67;;;;;;;;;;5010255;28;20449;-57
2023/08/24 11:36:30;;;;;;;9.87;6.50;;;;;;;;;;5010140;28;20497;-58
2023/08/24 11:38:58;;;;;;;9.10;6.17;;;;;;;;;;5010370;28;20756;-57
2023/08/24 11:41:25;;;;;;;11.03;6.07;;;;;;;;;;5010240;28;20446;-57
2023/08/24 11:44:01;;;;;;;9.87;6.30;;;;;;;;;;5009948;28;20505;-57
2023/08/24 11:46:30;;;;;;;11.30;6.37;;;;;;;;;;5010078;28;20569;-57
2023/08/24 11:48:58;;;;;;;9.53;5.90;;;;;;;;;;5010288;28;20489;-57
2023/08/24 11:51:26;;;;;;;9.10;6.40;;;;;;;;;;5010088;28;20831;-57
2023/08/24 11:53:53;;;;;;;14.50;7.17;;;;;;;;;;5009921;28;20538;-57
2023/08/24 11:56:20;;;;;;;10.53;6.90;;;;;;;;;;5010457;28;20470;-58
2023/08/24 11:58:50;;;;;;;10.47;6.77;;;;;;;;;;5011217;28;20463;-56
2023/08/24 12:01:19;;;;;;;10.97;7.80;;;;;;;;;;5013858;28;20797;-57
2023/08/24 12:03:46;;;;;;;12.40;7.00;;;;;;;;;;5014052;28;20443;-57
2023/08/24 12:06:14;;;;;;;9.13;6.77;;;;;;;;;;5014579;28;20565;-58
2023/08/24 12:08:41;;;;;;;12.40;7.00;;;;;;;;;;5014331;28;20517;-58
2023/08/24 12:11:12;;;;;;;9.60;5.83;;;;;;;;;;5014679;28;20447;-57
2023/08/24 12:13:39;;;;;;;8.40;6.33;;;;;;;;;;5014464;28;20815;-57
2023/08/24 12:16:07;;;;;;;18.63;7.30;;;;;;;;;;5014603;28;20522;-58
2023/08/24 12:18:37;;;;;;;8.40;5.83;;;;;;;;;;5014272;28;20490;-58
2023/08/24 12:21:05;;;;;;;9.20;6.43;;;;;;;;;;5014226;28;20502;-56
2023/08/24 12:23:32;;;;;;;8.97;5.90;;;;;;;;;;5014178;28;20530;-57
2023/08/24 12:25:59;;;;;;;6.43;5.60;;;;;;;;;;5014158;28;20566;-57
2023/08/24 12:28:27;;;;;;;10.63;5.90;;;;;;;;;;5014058;28;20611;-58
2023/08/24 12:30:54;;;;;;;10.50;5.90;;;;;;;;;;5014238;28;20447;-57
2023/08/24 12:33:25;;;;;;;11.13;5.80;;;;;;;;;;5013915;28;20443;-57
2023/08/24 12:35:55;;;;;;;10.00;5.40;;;;;;;;;;5013968;28;20819;-57
2023/08/24 12:38:22;;;;;;;9.07;6.70;;;;;;;;;;5014012;28;20854;-57
2023/08/24 12:40:50;;;;;;;9.87;5.60;;;;;;;;;;5013986;28;20494;-57
2023/08/24 12:43:17;;;;;;;16.23;5.83;;;;;;;;;;5013519;28;20522;-57
2023/08/24 12:45:44;;;;;;;12.20;6.13;;;;;;;;;;5013482;28;20538;-57
2023/08/24 12:48:12;;;;;;;12.57;6.20;;;;;;;;;;5013792;28;20886;-57
2023/08/24 12:50:39;;;;;;;10.17;5.17;;;;;;;;;;5013615;28;20490;-58
2023/08/24 12:53:08;;;;;;;10.67;5.40;;;;;;;;;;5013578;28;20955;-57
2023/08/24 12:55:37;;;;;;;11.57;6.33;;;;;;;;;;5013456;28;21025;-58
2023/08/24 12:58:05;;;;;;;16.97;5.33;;;;;;;;;;5013374;28;20949;-57
2023/08/24 13:00:32;;;;;;;9.40;5.63;;;;;;;;;;5012682;28;20813;-58
2023/08/24 13:02:59;;;;;;;12.70;5.93;;;;;;;;;;5013042;28;20605;-58
2023/08/24 13:05:27;;;;;;;11.73;6.30;;;;;;;;;;5013811;28;20973;-57
2023/08/24 13:07:54;;;;;;;14.07;6.97;;;;;;;;;;5013391;28;20486;-58
2023/08/24 13:10:25;;;;;;;10.63;5.03;;;;;;;;;;5012134;28;20479;-58
2023/08/24 13:12:52;;;;;;;9.23;5.33;;;;;;;;;;5012999;28;20497;-58
2023/08/24 13:15:20;;;;;;;16.50;6.30;;;;;;;;;;5013601;28;20871;-57
2023/08/24 13:17:47;;;;;;;11.17;5.70;;;;;;;;;;5013663;28;20457;-58
2023/08/24 13:20:15;;;;;;;11.23;5.53;;;;;;;;;;5012979;28;20965;-58
2023/08/24 13:22:44;;;;;;;12.30;5.40;;;;;;;;;;5013094;28;20996;-58
2023/08/24 13:25:12;;;;;;;13.80;6.43;;;;;;;;;;5012972;28;20992;-57
2023/08/24 13:27:40;;;;;;;13.03;5.50;;;;;;;;;;5012107;28;20569;-56
2023/08/24 13:30:08;;;;;;;11.53;5.67;;;;;;;;;;5011427;28;20558;-58
2023/08/24 13:32:36;;;;;;;10.33;5.17;;;;;;;;;;5011628;28;20557;-57
2023/08/24 13:35:03;;;;;;;8.23;5.00;;;;;;;;;;5010470;28;20454;-58
2023/08/24 13:37:30;;;;;;;10.03;5.17;;;;;;;;;;5010970;28;20439;-57
2023/08/24 13:39:57;;;;;;;14.47;6.00;;;;;;;;;;5011370;28;21033;-56
2023/08/24 13:42:25;;;;;;;13.80;6.00;;;;;;;;;;5011768;28;20467;-58
2023/08/24 13:44:53;;;;;;;11.60;5.97;;;;;;;;;;5012433;28;20443;-57
2023/08/24 13:47:21;;;;;;;12.03;5.97;;;;;;;;;;5012323;28;20585;-58
2023/08/24 13:49:49;;;;;;;9.33;6.03;;;;;;;;;;5012357;28;20461;-58
2023/08/24 13:52:18;;;;;;;16.73;6.63;;;;;;;;;;5012233;28;21008;-58
2023/08/24 13:54:46;;;;;;;10.70;5.03;;;;;;;;;;5012415;28;20443;-58
2023/08/24 13:57:13;;;;;;;9.90;6.40;;;;;;;;;;5012446;28;20439;-56
2023/08/24 13:59:40;;;;;;;12.73;5.80;;;;;;;;;;5012344;28;20542;-58
2023/08/24 14:02:09;;;;;;;12.70;5.97;;;;;;;;;;5011806;28;20530;-58
2023/08/24 14:04:36;;;;;;;13.77;5.83;;;;;;;;;;5012247;28;20732;-57
2023/08/24 14:07:03;;;;;;;10.57;5.83;;;;;;;;;;5012305;28;20562;-58
2023/08/24 14:09:30;;;;;;;7.83;5.30;;;;;;;;;;5012065;28;20579;-58
2023/08/24 14:11:58;;;;;;;9.10;6.10;;;;;;;;;;5011524;28;20471;-57
2023/08/24 14:14:25;;;;;;;9.87;6.20;;;;;;;;;;5011109;28;20531;-58
2023/08/24 14:16:56;;;;;;;10.63;6.40;;;;;;;;;;5010770;28;20427;-58
2023/08/24 14:19:24;;;;;;;11.57;6.20;;;;;;;;;;5010639;28;20461;-56
2023/08/24 14:21:52;;;;;;;7.93;4.70;;;;;;;;;;5011014;28;20462;-58
2023/08/24 14:24:19;;;;;;;9.90;6.30;;;;;;;;;;5011362;28;20501;-58
2023/08/24 14:26:46;;;;;;;11.13;5.20;;;;;;;;;;5011763;28;20571;-58
2023/08/24 14:29:14;;;;;;;8.87;6.30;;;;;;;;;;5011539;28;20855;-59
2023/08/24 14:31:41;;;;;;;11.30;5.80;;;;;;;;;;5011144;28;20838;-58
2023/08/24 14:34:08;;;;;;;11.27;6.37;;;;;;;;;;5010520;28;20530;-58
2023/08/24 14:36:37;;;;;;;11.30;5.80;;;;;;;;;;5010204;28;20534;-58
2023/08/24 14:39:04;;;;;;;11.50;6.30;;;;;;;;;;5040783;22;20456;-83
2023/08/24 14:41:31;;;;;;;13.23;6.97;;;;;;;;;;5050604;28;20532;-83
2023/08/24 14:43:59;;;;;;;9.57;7.40;;;;;;;;;;5052441;28;20429;-84